sensor_id;sensor_type;location;lat;lon;timestamp;P1;durP1;ratioP1;P2;durP2;ratioP2
71475;SDS011;59286;59.274;17.974;2022-10-20T00:01:07;1.95;;;0.70;;
71475;SDS011;59286;59.274;17.974;2022-10-20T00:03:33;1.08;;;0.70;;
71475;SDS011;59286;59.274;17.974;2022-10-20T00:06:06;0.93;;;0.57;;
71475;SDS011;59286;59.274;17.974;2022-10-20T00:08:39;0.77;;;0.50;;
71475;SDS011;59286;59.274;17.974;2022-10-20T00:11:06;0.93;;;0.57;;
71475;SDS011;59286;59.274;17.974;2022-10-20T00:13:32;0.95;;;0.50;;
71475;SDS011;59286;59.274;17.974;2022-10-20T00:15:58;0.55;;;0.52;;
71475;SDS011;59286;59.274;17.974;2022-10-20T00:18:24;0.52;;;0.50;;
71475;SDS011;59286;59.274;17.974;2022-10-20T00:20:51;1.60;;;0.50;;
71475;SDS011;59286;59.274;17.974;2022-10-20T00:23:17;1.10;;;0.70;;
71475;SDS011;59286;59.274;17.974;2022-10-20T00:25:43;1.35;;;0.50;;
71475;SDS011;59286;59.274;17.974;2022-10-20T00:28:08;1.60;;;0.60;;
71475;SDS011;59286;59.274;17.974;2022-10-20T00:30:34;1.23;;;0.60;;
71475;SDS011;59286;59.274;17.974;2022-10-20T00:33:01;0.73;;;0.50;;
71475;SDS011;59286;59.274;17.974;2022-10-20T00:35:27;2.40;;;0.70;;
71475;SDS011;59286;59.274;17.974;2022-10-20T00:37:53;1.67;;;0.75;;
71475;SDS011;59286;59.274;17.974;2022-10-20T00:40:19;2.03;;;0.70;;
71475;SDS011;59286;59.274;17.974;2022-10-20T00:42:45;0.77;;;0.50;;
71475;SDS011;59286;59.274;17.974;2022-10-20T00:45:12;1.20;;;0.63;;
71475;SDS011;59286;59.274;17.974;2022-10-20T00:47:41;2.72;;;1.00;;
71475;SDS011;59286;59.274;17.974;2022-10-20T00:50:17;1.60;;;1.02;;
71475;SDS011;59286;59.274;17.974;2022-10-20T00:52:45;3.60;;;1.20;;
71475;SDS011;59286;59.274;17.974;2022-10-20T00:55:13;2.63;;;0.77;;
71475;SDS011;59286;59.274;17.974;2022-10-20T00:57:44;2.85;;;0.98;;
71475;SDS011;59286;59.274;17.974;2022-10-20T01:00:13;2.65;;;0.80;;
71475;SDS011;59286;59.274;17.974;2022-10-20T01:02:40;3.53;;;1.00;;
71475;SDS011;59286;59.274;17.974;2022-10-20T01:05:06;1.65;;;0.80;;
71475;SDS011;59286;59.274;17.974;2022-10-20T01:07:32;6.53;;;0.80;;
71475;SDS011;59286;59.274;17.974;2022-10-20T01:09:57;1.17;;;0.57;;
71475;SDS011;59286;59.274;17.974;2022-10-20T01:12:33;0.98;;;0.43;;
71475;SDS011;59286;59.274;17.974;2022-10-20T01:26:36;1.92;;;0.82;;
71475;SDS011;59286;59.274;17.974;2022-10-20T01:31:57;1.25;;;0.60;;
71475;SDS011;59286;59.274;17.974;2022-10-20T01:37:36;1.23;;;0.70;;
71475;SDS011;59286;59.274;17.974;2022-10-20T01:43:02;1.23;;;0.65;;
71475;SDS011;59286;59.274;17.974;2022-10-20T01:45:31;1.33;;;0.70;;
71475;SDS011;59286;59.274;17.974;2022-10-20T01:48:02;1.13;;;0.80;;
71475;SDS011;59286;59.274;17.974;2022-10-20T01:50:29;1.92;;;0.57;;
71475;SDS011;59286;59.274;17.974;2022-10-20T01:52:57;2.42;;;0.70;;
71475;SDS011;59286;59.274;17.974;2022-10-20T01:55:23;1.38;;;0.50;;
71475;SDS011;59286;59.274;17.974;2022-10-20T01:57:55;1.38;;;0.70;;
71475;SDS011;59286;59.274;17.974;2022-10-20T02:00:52;4.18;;;0.75;;
71475;SDS011;59286;59.274;17.974;2022-10-20T02:06:39;1.25;;;0.50;;
71475;SDS011;59286;59.274;17.974;2022-10-20T02:09:19;2.55;;;1.13;;
71475;SDS011;59286;59.274;17.974;2022-10-20T02:14:25;1.40;;;0.60;;
71475;SDS011;59286;59.274;17.974;2022-10-20T02:16:53;1.83;;;0.80;;
71475;SDS011;59286;59.274;17.974;2022-10-20T02:19:22;1.73;;;0.70;;
71475;SDS011;59286;59.274;17.974;2022-10-20T02:21:51;1.38;;;0.70;;
71475;SDS011;59286;59.274;17.974;2022-10-20T02:24:21;1.52;;;0.70;;
71475;SDS011;59286;59.274;17.974;2022-10-20T02:26:50;1.60;;;1.05;;
71475;SDS011;59286;59.274;17.974;2022-10-20T02:29:19;2.70;;;1.00;;
71475;SDS011;59286;59.274;17.974;2022-10-20T02:31:48;2.60;;;0.77;;
71475;SDS011;59286;59.274;17.974;2022-10-20T02:34:14;2.95;;;0.80;;
71475;SDS011;59286;59.274;17.974;2022-10-20T02:36:41;3.72;;;1.13;;
71475;SDS011;59286;59.274;17.974;2022-10-20T02:39:07;0.77;;;0.77;;
71475;SDS011;59286;59.274;17.974;2022-10-20T02:41:33;1.30;;;0.80;;
71475;SDS011;59286;59.274;17.974;2022-10-20T02:44:02;2.00;;;0.90;;
71475;SDS011;59286;59.274;17.974;2022-10-20T02:46:27;1.08;;;0.77;;
71475;SDS011;59286;59.274;17.974;2022-10-20T02:48:53;2.03;;;1.02;;
71475;SDS011;59286;59.274;17.974;2022-10-20T02:51:18;1.25;;;0.93;;
71475;SDS011;59286;59.274;17.974;2022-10-20T02:53:44;3.15;;;0.90;;
71475;SDS011;59286;59.274;17.974;2022-10-20T02:56:10;1.60;;;1.00;;
71475;SDS011;59286;59.274;17.974;2022-10-20T02:58:36;1.50;;;1.00;;
71475;SDS011;59286;59.274;17.974;2022-10-20T03:01:01;4.03;;;1.50;;
71475;SDS011;59286;59.274;17.974;2022-10-20T03:03:28;2.03;;;1.23;;
71475;SDS011;59286;59.274;17.974;2022-10-20T03:05:53;1.50;;;1.00;;
71475;SDS011;59286;59.274;17.974;2022-10-20T03:08:19;2.72;;;1.15;;
71475;SDS011;59286;59.274;17.974;2022-10-20T03:10:45;3.58;;;1.25;;
71475;SDS011;59286;59.274;17.974;2022-10-20T03:13:10;2.28;;;1.05;;
71475;SDS011;59286;59.274;17.974;2022-10-20T03:15:36;2.83;;;0.95;;
71475;SDS011;59286;59.274;17.974;2022-10-20T03:18:02;1.55;;;0.90;;
71475;SDS011;59286;59.274;17.974;2022-10-20T03:20:28;1.67;;;0.77;;
71475;SDS011;59286;59.274;17.974;2022-10-20T03:22:53;1.10;;;0.98;;
71475;SDS011;59286;59.274;17.974;2022-10-20T03:25:19;2.80;;;1.10;;
71475;SDS011;59286;59.274;17.974;2022-10-20T03:27:44;0.65;;;0.65;;
71475;SDS011;59286;59.274;17.974;2022-10-20T03:30:10;2.63;;;1.23;;
71475;SDS011;59286;59.274;17.974;2022-10-20T03:32:35;3.50;;;0.70;;
71475;SDS011;59286;59.274;17.974;2022-10-20T03:35:00;1.92;;;0.70;;
71475;SDS011;59286;59.274;17.974;2022-10-20T03:37:26;1.60;;;0.82;;
71475;SDS011;59286;59.274;17.974;2022-10-20T03:39:51;2.20;;;1.38;;
71475;SDS011;59286;59.274;17.974;2022-10-20T03:42:17;3.47;;;1.50;;
71475;SDS011;59286;59.274;17.974;2022-10-20T03:44:42;3.22;;;2.00;;
71475;SDS011;59286;59.274;17.974;2022-10-20T03:47:11;5.90;;;2.70;;
71475;SDS011;59286;59.274;17.974;2022-10-20T03:49:37;3.22;;;2.45;;
71475;SDS011;59286;59.274;17.974;2022-10-20T03:52:11;2.47;;;2.05;;
71475;SDS011;59286;59.274;17.974;2022-10-20T03:54:36;4.80;;;1.67;;
71475;SDS011;59286;59.274;17.974;2022-10-20T03:57:01;2.88;;;1.38;;
71475;SDS011;59286;59.274;17.974;2022-10-20T03:59:27;1.38;;;1.27;;
71475;SDS011;59286;59.274;17.974;2022-10-20T04:01:53;1.50;;;1.02;;
71475;SDS011;59286;59.274;17.974;2022-10-20T04:04:18;1.15;;;1.05;;
71475;SDS011;59286;59.274;17.974;2022-10-20T04:06:50;3.33;;;1.08;;
71475;SDS011;59286;59.274;17.974;2022-10-20T04:09:15;3.17;;;0.90;;
71475;SDS011;59286;59.274;17.974;2022-10-20T04:11:40;1.88;;;1.00;;
71475;SDS011;59286;59.274;17.974;2022-10-20T04:14:06;2.72;;;0.80;;
71475;SDS011;59286;59.274;17.974;2022-10-20T04:16:31;1.20;;;0.70;;
71475;SDS011;59286;59.274;17.974;2022-10-20T04:18:57;1.05;;;0.85;;
71475;SDS011;59286;59.274;17.974;2022-10-20T04:21:22;3.05;;;0.88;;
71475;SDS011;59286;59.274;17.974;2022-10-20T04:23:49;2.40;;;0.73;;
71475;SDS011;59286;59.274;17.974;2022-10-20T04:26:14;2.10;;;0.98;;
71475;SDS011;59286;59.274;17.974;2022-10-20T04:28:40;1.30;;;0.85;;
71475;SDS011;59286;59.274;17.974;2022-10-20T04:31:06;2.25;;;1.02;;
71475;SDS011;59286;59.274;17.974;2022-10-20T04:33:32;1.55;;;0.82;;
71475;SDS011;59286;59.274;17.974;2022-10-20T04:35:58;1.73;;;0.75;;
71475;SDS011;59286;59.274;17.974;2022-10-20T04:38:25;0.82;;;0.80;;
71475;SDS011;59286;59.274;17.974;2022-10-20T04:40:54;3.03;;;1.20;;
71475;SDS011;59286;59.274;17.974;2022-10-20T04:43:20;1.52;;;0.98;;
71475;SDS011;59286;59.274;17.974;2022-10-20T04:45:46;1.10;;;0.82;;
71475;SDS011;59286;59.274;17.974;2022-10-20T04:48:11;5.47;;;1.35;;
71475;SDS011;59286;59.274;17.974;2022-10-20T04:50:36;1.73;;;1.00;;
71475;SDS011;59286;59.274;17.974;2022-10-20T04:53:02;2.13;;;1.48;;
71475;SDS011;59286;59.274;17.974;2022-10-20T04:55:27;1.75;;;1.20;;
71475;SDS011;59286;59.274;17.974;2022-10-20T04:57:52;2.88;;;0.98;;
71475;SDS011;59286;59.274;17.974;2022-10-20T05:00:18;3.50;;;1.20;;
71475;SDS011;59286;59.274;17.974;2022-10-20T05:02:43;1.30;;;1.00;;
71475;SDS011;59286;59.274;17.974;2022-10-20T05:05:09;4.03;;;1.48;;
71475;SDS011;59286;59.274;17.974;2022-10-20T05:07:34;2.58;;;1.20;;
71475;SDS011;59286;59.274;17.974;2022-10-20T05:09:59;2.63;;;1.35;;
71475;SDS011;59286;59.274;17.974;2022-10-20T05:12:25;1.73;;;1.48;;
71475;SDS011;59286;59.274;17.974;2022-10-20T05:14:51;8.82;;;8.02;;
71475;SDS011;59286;59.274;17.974;2022-10-20T05:17:17;5.20;;;3.38;;
71475;SDS011;59286;59.274;17.974;2022-10-20T05:19:42;7.30;;;6.20;;
71475;SDS011;59286;59.274;17.974;2022-10-20T05:22:09;6.93;;;5.35;;
71475;SDS011;59286;59.274;17.974;2022-10-20T05:24:35;7.53;;;5.55;;
71475;SDS011;59286;59.274;17.974;2022-10-20T05:27:00;8.68;;;5.63;;
71475;SDS011;59286;59.274;17.974;2022-10-20T05:29:26;13.48;;;9.35;;
71475;SDS011;59286;59.274;17.974;2022-10-20T05:31:51;14.32;;;10.05;;
71475;SDS011;59286;59.274;17.974;2022-10-20T05:34:17;17.73;;;13.73;;
71475;SDS011;59286;59.274;17.974;2022-10-20T05:36:42;11.80;;;10.25;;
71475;SDS011;59286;59.274;17.974;2022-10-20T05:39:08;9.18;;;7.35;;
71475;SDS011;59286;59.274;17.974;2022-10-20T05:41:34;8.52;;;6.75;;
71475;SDS011;59286;59.274;17.974;2022-10-20T05:44:02;7.70;;;6.00;;
71475;SDS011;59286;59.274;17.974;2022-10-20T05:46:30;9.85;;;7.78;;
71475;SDS011;59286;59.274;17.974;2022-10-20T05:48:58;6.05;;;4.32;;
71475;SDS011;59286;59.274;17.974;2022-10-20T05:51:26;3.85;;;2.80;;
71475;SDS011;59286;59.274;17.974;2022-10-20T05:53:54;7.93;;;5.20;;
71475;SDS011;59286;59.274;17.974;2022-10-20T05:56:20;7.07;;;5.35;;
71475;SDS011;59286;59.274;17.974;2022-10-20T05:58:46;6.22;;;3.95;;
71475;SDS011;59286;59.274;17.974;2022-10-20T06:01:13;6.03;;;4.15;;
71475;SDS011;59286;59.274;17.974;2022-10-20T06:03:49;6.35;;;4.38;;
71475;SDS011;59286;59.274;17.974;2022-10-20T06:06:17;8.70;;;6.05;;
71475;SDS011;59286;59.274;17.974;2022-10-20T06:08:44;7.88;;;5.07;;
71475;SDS011;59286;59.274;17.974;2022-10-20T06:11:10;7.75;;;4.85;;
71475;SDS011;59286;59.274;17.974;2022-10-20T06:13:38;4.80;;;3.53;;
71475;SDS011;59286;59.274;17.974;2022-10-20T06:16:10;4.93;;;3.60;;
71475;SDS011;59286;59.274;17.974;2022-10-20T06:18:38;7.35;;;3.50;;
71475;SDS011;59286;59.274;17.974;2022-10-20T06:21:25;3.30;;;2.88;;
71475;SDS011;59286;59.274;17.974;2022-10-20T06:23:50;7.20;;;3.38;;
71475;SDS011;59286;59.274;17.974;2022-10-20T06:26:20;4.50;;;3.00;;
71475;SDS011;59286;59.274;17.974;2022-10-20T06:28:49;4.95;;;3.15;;
71475;SDS011;59286;59.274;17.974;2022-10-20T06:31:17;3.65;;;2.78;;
71475;SDS011;59286;59.274;17.974;2022-10-20T06:33:46;3.40;;;2.20;;
71475;SDS011;59286;59.274;17.974;2022-10-20T06:36:12;3.22;;;1.90;;
71475;SDS011;59286;59.274;17.974;2022-10-20T06:38:39;3.53;;;2.00;;
71475;SDS011;59286;59.274;17.974;2022-10-20T06:41:06;4.90;;;2.05;;
71475;SDS011;59286;59.274;17.974;2022-10-20T06:43:34;5.60;;;1.90;;
71475;SDS011;59286;59.274;17.974;2022-10-20T06:46:03;6.18;;;1.23;;
71475;SDS011;59286;59.274;17.974;2022-10-20T06:48:30;6.10;;;1.60;;
71475;SDS011;59286;59.274;17.974;2022-10-20T06:50:56;5.93;;;1.10;;
71475;SDS011;59286;59.274;17.974;2022-10-20T06:53:26;3.58;;;1.20;;
71475;SDS011;59286;59.274;17.974;2022-10-20T06:55:57;3.00;;;1.40;;
71475;SDS011;59286;59.274;17.974;2022-10-20T06:58:27;4.90;;;1.05;;
71475;SDS011;59286;59.274;17.974;2022-10-20T07:01:00;3.03;;;1.35;;
71475;SDS011;59286;59.274;17.974;2022-10-20T07:03:26;7.50;;;1.10;;
71475;SDS011;59286;59.274;17.974;2022-10-20T07:05:53;3.67;;;1.00;;
71475;SDS011;59286;59.274;17.974;2022-10-20T07:08:19;5.97;;;2.15;;
71475;SDS011;59286;59.274;17.974;2022-10-20T07:10:44;3.25;;;1.40;;
71475;SDS011;59286;59.274;17.974;2022-10-20T07:13:09;4.28;;;1.35;;
71475;SDS011;59286;59.274;17.974;2022-10-20T07:15:35;2.30;;;1.30;;
71475;SDS011;59286;59.274;17.974;2022-10-20T07:18:00;4.32;;;1.17;;
71475;SDS011;59286;59.274;17.974;2022-10-20T07:20:26;3.85;;;1.30;;
71475;SDS011;59286;59.274;17.974;2022-10-20T07:22:51;2.25;;;1.20;;
71475;SDS011;59286;59.274;17.974;2022-10-20T07:25:16;2.13;;;0.90;;
71475;SDS011;59286;59.274;17.974;2022-10-20T07:27:45;3.95;;;0.77;;
71475;SDS011;59286;59.274;17.974;2022-10-20T07:30:10;3.88;;;0.95;;
71475;SDS011;59286;59.274;17.974;2022-10-20T07:32:36;2.17;;;0.80;;
71475;SDS011;59286;59.274;17.974;2022-10-20T07:35:01;1.73;;;1.02;;
71475;SDS011;59286;59.274;17.974;2022-10-20T07:37:26;2.40;;;0.77;;
71475;SDS011;59286;59.274;17.974;2022-10-20T07:39:52;5.20;;;1.00;;
71475;SDS011;59286;59.274;17.974;2022-10-20T07:42:17;2.83;;;1.25;;
71475;SDS011;59286;59.274;17.974;2022-10-20T07:44:42;5.70;;;1.70;;
71475;SDS011;59286;59.274;17.974;2022-10-20T07:47:08;2.20;;;1.63;;
71475;SDS011;59286;59.274;17.974;2022-10-20T07:49:34;2.25;;;0.80;;
71475;SDS011;59286;59.274;17.974;2022-10-20T07:51:59;1.50;;;0.90;;
71475;SDS011;59286;59.274;17.974;2022-10-20T07:54:25;2.60;;;0.80;;
71475;SDS011;59286;59.274;17.974;2022-10-20T07:56:51;2.55;;;0.77;;
71475;SDS011;59286;59.274;17.974;2022-10-20T07:59:16;2.40;;;0.98;;
71475;SDS011;59286;59.274;17.974;2022-10-20T08:01:42;2.50;;;0.80;;
71475;SDS011;59286;59.274;17.974;2022-10-20T08:04:08;3.70;;;1.00;;
71475;SDS011;59286;59.274;17.974;2022-10-20T08:06:33;1.10;;;0.80;;
71475;SDS011;59286;59.274;17.974;2022-10-20T08:08:58;3.00;;;0.80;;
71475;SDS011;59286;59.274;17.974;2022-10-20T08:11:24;2.15;;;0.93;;
71475;SDS011;59286;59.274;17.974;2022-10-20T08:13:49;0.70;;;0.70;;
71475;SDS011;59286;59.274;17.974;2022-10-20T08:16:15;1.30;;;0.70;;
71475;SDS011;59286;59.274;17.974;2022-10-20T08:18:42;1.73;;;0.77;;
71475;SDS011;59286;59.274;17.974;2022-10-20T08:21:09;0.80;;;0.80;;
71475;SDS011;59286;59.274;17.974;2022-10-20T08:23:41;0.80;;;0.50;;
71475;SDS011;59286;59.274;17.974;2022-10-20T08:26:08;0.98;;;0.60;;
71475;SDS011;59286;59.274;17.974;2022-10-20T08:28:34;1.20;;;0.77;;
71475;SDS011;59286;59.274;17.974;2022-10-20T08:31:03;3.22;;;0.88;;
71475;SDS011;59286;59.274;17.974;2022-10-20T08:33:29;0.75;;;0.55;;
71475;SDS011;59286;59.274;17.974;2022-10-20T08:35:54;2.05;;;0.80;;
71475;SDS011;59286;59.274;17.974;2022-10-20T08:38:20;3.30;;;0.75;;
71475;SDS011;59286;59.274;17.974;2022-10-20T08:40:45;1.13;;;0.70;;
71475;SDS011;59286;59.274;17.974;2022-10-20T08:43:15;1.63;;;0.80;;
71475;SDS011;59286;59.274;17.974;2022-10-20T08:45:42;1.38;;;0.73;;
71475;SDS011;59286;59.274;17.974;2022-10-20T08:50:42;0.77;;;0.60;;
71475;SDS011;59286;59.274;17.974;2022-10-20T08:53:09;1.83;;;0.80;;
71475;SDS011;59286;59.274;17.974;2022-10-20T08:55:36;1.20;;;0.75;;
71475;SDS011;59286;59.274;17.974;2022-10-20T08:58:06;3.65;;;0.82;;
71475;SDS011;59286;59.274;17.974;2022-10-20T09:00:37;1.23;;;0.63;;
71475;SDS011;59286;59.274;17.974;2022-10-20T09:03:15;1.70;;;0.90;;
71475;SDS011;59286;59.274;17.974;2022-10-20T09:05:43;1.42;;;0.70;;
71475;SDS011;59286;59.274;17.974;2022-10-20T09:08:11;1.27;;;0.88;;
71475;SDS011;59286;59.274;17.974;2022-10-20T09:10:37;2.10;;;0.70;;
71475;SDS011;59286;59.274;17.974;2022-10-20T09:13:08;1.35;;;0.80;;
71475;SDS011;59286;59.274;17.974;2022-10-20T09:15:45;2.45;;;0.85;;
71475;SDS011;59286;59.274;17.974;2022-10-20T09:18:12;2.70;;;0.70;;
71475;SDS011;59286;59.274;17.974;2022-10-20T09:20:42;4.60;;;0.80;;
71475;SDS011;59286;59.274;17.974;2022-10-20T09:23:13;3.53;;;0.90;;
71475;SDS011;59286;59.274;17.974;2022-10-20T09:25:42;1.95;;;1.00;;
71475;SDS011;59286;59.274;17.974;2022-10-20T09:28:15;2.03;;;1.02;;
71475;SDS011;59286;59.274;17.974;2022-10-20T09:30:55;3.03;;;1.42;;
71475;SDS011;59286;59.274;17.974;2022-10-20T09:33:28;4.20;;;1.30;;
71475;SDS011;59286;59.274;17.974;2022-10-20T09:38:26;3.08;;;0.70;;
71475;SDS011;59286;59.274;17.974;2022-10-20T09:41:12;2.05;;;1.20;;
71475;SDS011;59286;59.274;17.974;2022-10-20T09:43:48;3.67;;;1.33;;
71475;SDS011;59286;59.274;17.974;2022-10-20T09:46:20;2.25;;;0.98;;
71475;SDS011;59286;59.274;17.974;2022-10-20T09:48:48;3.42;;;2.00;;
71475;SDS011;59286;59.274;17.974;2022-10-20T09:51:16;3.72;;;1.58;;
71475;SDS011;59286;59.274;17.974;2022-10-20T09:56:26;4.68;;;2.50;;
71475;SDS011;59286;59.274;17.974;2022-10-20T09:58:54;3.65;;;2.50;;
71475;SDS011;59286;59.274;17.974;2022-10-20T10:01:21;4.07;;;2.80;;
71475;SDS011;59286;59.274;17.974;2022-10-20T10:03:49;3.10;;;1.30;;
71475;SDS011;59286;59.274;17.974;2022-10-20T10:09:01;3.92;;;1.40;;
71475;SDS011;59286;59.274;17.974;2022-10-20T10:11:34;5.38;;;1.05;;
71475;SDS011;59286;59.274;17.974;2022-10-20T10:14:00;3.85;;;0.95;;
71475;SDS011;59286;59.274;17.974;2022-10-20T10:16:27;2.20;;;1.00;;
71475;SDS011;59286;59.274;17.974;2022-10-20T10:19:03;2.72;;;1.80;;
71475;SDS011;59286;59.274;17.974;2022-10-20T10:21:29;2.88;;;2.30;;
71475;SDS011;59286;59.274;17.974;2022-10-20T10:27:05;13.20;;;8.77;;
71475;SDS011;59286;59.274;17.974;2022-10-20T10:29:43;8.55;;;5.97;;
71475;SDS011;59286;59.274;17.974;2022-10-20T10:32:22;6.75;;;4.30;;
71475;SDS011;59286;59.274;17.974;2022-10-20T10:35:03;7.13;;;3.28;;
71475;SDS011;59286;59.274;17.974;2022-10-20T10:37:35;11.90;;;6.70;;
71475;SDS011;59286;59.274;17.974;2022-10-20T10:40:14;12.27;;;7.30;;
71475;SDS011;59286;59.274;17.974;2022-10-20T11:20:36;2.85;;;1.25;;
71475;SDS011;59286;59.274;17.974;2022-10-20T11:26:09;1.88;;;1.10;;
71475;SDS011;59286;59.274;17.974;2022-10-20T11:28:43;3.97;;;1.27;;
71475;SDS011;59286;59.274;17.974;2022-10-20T11:36:44;3.97;;;0.60;;
71475;SDS011;59286;59.274;17.974;2022-10-20T11:39:16;0.63;;;0.32;;
71475;SDS011;59286;59.274;17.974;2022-10-20T11:44:24;3.58;;;0.90;;
71475;SDS011;59286;59.274;17.974;2022-10-20T11:47:16;1.25;;;0.57;;
71475;SDS011;59286;59.274;17.974;2022-10-20T11:49:46;1.55;;;0.47;;
71475;SDS011;59286;59.274;17.974;2022-10-20T11:52:19;0.68;;;0.35;;
71475;SDS011;59286;59.274;17.974;2022-10-20T11:55:04;1.40;;;0.17;;
71475;SDS011;59286;59.274;17.974;2022-10-20T11:57:42;1.08;;;0.30;;
71475;SDS011;59286;59.274;17.974;2022-10-20T12:00:41;0.63;;;0.30;;
71475;SDS011;59286;59.274;17.974;2022-10-20T12:12:14;0.70;;;0.40;;
71475;SDS011;59286;59.274;17.974;2022-10-20T12:14:55;1.25;;;0.43;;
71475;SDS011;59286;59.274;17.974;2022-10-20T12:17:30;1.45;;;0.60;;
71475;SDS011;59286;59.274;17.974;2022-10-20T12:22:44;2.10;;;0.50;;
71475;SDS011;59286;59.274;17.974;2022-10-20T12:25:15;0.70;;;0.40;;
71475;SDS011;59286;59.274;17.974;2022-10-20T12:27:46;0.68;;;0.50;;
71475;SDS011;59286;59.274;17.974;2022-10-20T12:33:13;0.85;;;0.40;;
71475;SDS011;59286;59.274;17.974;2022-10-20T12:35:57;0.60;;;0.40;;
71475;SDS011;59286;59.274;17.974;2022-10-20T12:38:23;0.50;;;0.30;;
71475;SDS011;59286;59.274;17.974;2022-10-20T12:40:51;0.20;;;0.20;;
71475;SDS011;59286;59.274;17.974;2022-10-20T12:43:22;0.32;;;0.30;;
71475;SDS011;59286;59.274;17.974;2022-10-20T12:45:50;0.30;;;0.30;;
71475;SDS011;59286;59.274;17.974;2022-10-20T12:48:19;0.95;;;0.10;;
71475;SDS011;59286;59.274;17.974;2022-10-20T12:50:48;2.65;;;0.28;;
71475;SDS011;59286;59.274;17.974;2022-10-20T12:53:22;0.47;;;0.30;;
71475;SDS011;59286;59.274;17.974;2022-10-20T12:56:04;0.20;;;0.20;;
71475;SDS011;59286;59.274;17.974;2022-10-20T13:15:20;0.55;;;0.30;;
71475;SDS011;59286;59.274;17.974;2022-10-20T13:17:54;0.68;;;0.32;;
71475;SDS011;59286;59.274;17.974;2022-10-20T13:23:38;0.47;;;0.30;;
71475;SDS011;59286;59.274;17.974;2022-10-20T13:29:10;1.00;;;0.40;;
71475;SDS011;59286;59.274;17.974;2022-10-20T13:40:22;1.10;;;0.43;;
71475;SDS011;59286;59.274;17.974;2022-10-20T13:43:00;1.27;;;0.50;;
71475;SDS011;59286;59.274;17.974;2022-10-20T13:51:03;1.70;;;0.65;;
71475;SDS011;59286;59.274;17.974;2022-10-20T13:53:42;0.80;;;0.50;;
71475;SDS011;59286;59.274;17.974;2022-10-20T13:58:39;2.45;;;0.40;;
71475;SDS011;59286;59.274;17.974;2022-10-20T14:01:06;1.33;;;0.70;;
71475;SDS011;59286;59.274;17.974;2022-10-20T14:03:48;2.47;;;1.08;;
71475;SDS011;59286;59.274;17.974;2022-10-20T14:08:51;3.38;;;1.20;;
71475;SDS011;59286;59.274;17.974;2022-10-20T14:11:16;2.55;;;1.63;;
71475;SDS011;59286;59.274;17.974;2022-10-20T14:13:42;2.60;;;1.60;;
71475;SDS011;59286;59.274;17.974;2022-10-20T14:16:14;3.20;;;1.80;;
71475;SDS011;59286;59.274;17.974;2022-10-20T14:18:44;3.50;;;1.00;;
71475;SDS011;59286;59.274;17.974;2022-10-20T14:21:25;3.97;;;1.00;;
71475;SDS011;59286;59.274;17.974;2022-10-20T14:23:52;2.78;;;0.93;;
71475;SDS011;59286;59.274;17.974;2022-10-20T14:26:21;0.93;;;0.60;;
71475;SDS011;59286;59.274;17.974;2022-10-20T14:28:49;1.90;;;0.70;;
71475;SDS011;59286;59.274;17.974;2022-10-20T14:31:16;2.03;;;0.80;;
71475;SDS011;59286;59.274;17.974;2022-10-20T14:33:45;5.43;;;1.92;;
71475;SDS011;59286;59.274;17.974;2022-10-20T14:36:17;3.22;;;1.65;;
71475;SDS011;59286;59.274;17.974;2022-10-20T14:38:50;2.50;;;1.25;;
71475;SDS011;59286;59.274;17.974;2022-10-20T14:41:27;4.65;;;1.30;;
71475;SDS011;59286;59.274;17.974;2022-10-20T14:43:56;2.08;;;1.20;;
71475;SDS011;59286;59.274;17.974;2022-10-20T14:46:28;3.83;;;1.23;;
71475;SDS011;59286;59.274;17.974;2022-10-20T14:48:58;2.17;;;0.80;;
71475;SDS011;59286;59.274;17.974;2022-10-20T14:51:41;2.22;;;0.77;;
71475;SDS011;59286;59.274;17.974;2022-10-20T14:56:59;0.98;;;0.60;;
71475;SDS011;59286;59.274;17.974;2022-10-20T14:59:55;1.50;;;0.60;;
71475;SDS011;59286;59.274;17.974;2022-10-20T15:02:35;2.38;;;0.52;;
71475;SDS011;59286;59.274;17.974;2022-10-20T15:07:48;1.63;;;0.68;;
71475;SDS011;59286;59.274;17.974;2022-10-20T15:10:15;4.47;;;0.70;;
71475;SDS011;59286;59.274;17.974;2022-10-20T15:12:45;2.33;;;0.70;;
71475;SDS011;59286;59.274;17.974;2022-10-20T15:15:26;2.40;;;0.80;;
71475;SDS011;59286;59.274;17.974;2022-10-20T15:20:32;3.38;;;0.73;;
71475;SDS011;59286;59.274;17.974;2022-10-20T15:23:17;2.50;;;0.77;;
71475;SDS011;59286;59.274;17.974;2022-10-20T15:25:48;4.07;;;1.00;;
71475;SDS011;59286;59.274;17.974;2022-10-20T15:31:04;1.58;;;0.88;;
71475;SDS011;59286;59.274;17.974;2022-10-20T15:33:50;3.17;;;1.30;;
71475;SDS011;59286;59.274;17.974;2022-10-20T15:36:20;2.00;;;1.10;;
71475;SDS011;59286;59.274;17.974;2022-10-20T15:38:49;4.20;;;1.20;;
71475;SDS011;59286;59.274;17.974;2022-10-20T15:41:20;4.95;;;1.50;;
71475;SDS011;59286;59.274;17.974;2022-10-20T15:43:49;3.35;;;1.17;;
71475;SDS011;59286;59.274;17.974;2022-10-20T15:46:16;4.05;;;1.40;;
71475;SDS011;59286;59.274;17.974;2022-10-20T15:48:42;1.77;;;1.02;;
71475;SDS011;59286;59.274;17.974;2022-10-20T15:51:19;5.03;;;2.03;;
71475;SDS011;59286;59.274;17.974;2022-10-20T15:53:49;4.68;;;2.67;;
71475;SDS011;59286;59.274;17.974;2022-10-20T15:56:15;8.60;;;5.38;;
71475;SDS011;59286;59.274;17.974;2022-10-20T15:58:41;7.93;;;3.90;;
71475;SDS011;59286;59.274;17.974;2022-10-20T16:01:08;8.30;;;3.75;;
71475;SDS011;59286;59.274;17.974;2022-10-20T16:03:35;4.80;;;3.13;;
71475;SDS011;59286;59.274;17.974;2022-10-20T16:06:04;4.30;;;2.53;;
71475;SDS011;59286;59.274;17.974;2022-10-20T16:08:30;4.25;;;2.33;;
71475;SDS011;59286;59.274;17.974;2022-10-20T16:10:55;5.93;;;2.25;;
71475;SDS011;59286;59.274;17.974;2022-10-20T16:13:21;4.20;;;2.17;;
71475;SDS011;59286;59.274;17.974;2022-10-20T16:15:46;4.85;;;2.00;;
71475;SDS011;59286;59.274;17.974;2022-10-20T16:18:12;2.53;;;1.83;;
71475;SDS011;59286;59.274;17.974;2022-10-20T16:20:37;4.78;;;2.20;;
71475;SDS011;59286;59.274;17.974;2022-10-20T16:23:02;3.42;;;1.90;;
71475;SDS011;59286;59.274;17.974;2022-10-20T16:25:28;3.17;;;2.00;;
71475;SDS011;59286;59.274;17.974;2022-10-20T16:27:53;6.38;;;2.22;;
71475;SDS011;59286;59.274;17.974;2022-10-20T16:30:18;6.22;;;2.33;;
71475;SDS011;59286;59.274;17.974;2022-10-20T16:32:44;6.22;;;2.65;;
71475;SDS011;59286;59.274;17.974;2022-10-20T16:35:09;6.43;;;2.47;;
71475;SDS011;59286;59.274;17.974;2022-10-20T16:37:34;6.57;;;2.22;;
71475;SDS011;59286;59.274;17.974;2022-10-20T16:40:00;5.22;;;2.10;;
71475;SDS011;59286;59.274;17.974;2022-10-20T16:42:26;3.10;;;1.83;;
71475;SDS011;59286;59.274;17.974;2022-10-20T16:44:54;2.50;;;1.50;;
71475;SDS011;59286;59.274;17.974;2022-10-20T16:47:19;4.15;;;2.00;;
71475;SDS011;59286;59.274;17.974;2022-10-20T16:49:45;2.53;;;1.67;;
71475;SDS011;59286;59.274;17.974;2022-10-20T16:52:10;9.32;;;2.40;;
71475;SDS011;59286;59.274;17.974;2022-10-20T16:54:36;6.88;;;2.40;;
71475;SDS011;59286;59.274;17.974;2022-10-20T16:57:02;10.25;;;3.65;;
71475;SDS011;59286;59.274;17.974;2022-10-20T16:59:28;4.70;;;3.72;;
71475;SDS011;59286;59.274;17.974;2022-10-20T17:01:53;7.88;;;4.45;;
71475;SDS011;59286;59.274;17.974;2022-10-20T17:04:19;7.10;;;4.32;;
71475;SDS011;59286;59.274;17.974;2022-10-20T17:06:44;5.85;;;4.32;;
71475;SDS011;59286;59.274;17.974;2022-10-20T17:09:10;7.22;;;4.72;;
71475;SDS011;59286;59.274;17.974;2022-10-20T17:11:35;5.78;;;4.10;;
71475;SDS011;59286;59.274;17.974;2022-10-20T17:14:00;7.63;;;4.72;;
71475;SDS011;59286;59.274;17.974;2022-10-20T17:16:27;7.05;;;4.00;;
71475;SDS011;59286;59.274;17.974;2022-10-20T17:18:55;7.45;;;4.65;;